RJNA(METAR)
06/25 14:00
METAR RJNA 250500Z 18008KT 140V230 9999 FEW030 30/11 Q1014 RMK 1CU030
A2996=
戻る
トップページへ戻る
IMOC Co,.Ltd.